Time;durP1;ratioP1;P1;durP2;ratioP2;P2;SDS_P1;SDS_P2;PMS_P1;PMS_P2;Temp;Humidity;BMP_temperature;BMP_pressure;BME280_temperature;BME280_humidity;BME280_pressure;Samples;Min_cycle;Max_cycle;Signal;HPM_P1;HPM_P2
2021/01/15 00:02:21;;;;;;;12.47;7.40;;;;;;;;;;5068709;28;20036;-81
2021/01/15 00:04:47;;;;;;;11.90;7.30;;;;;;;;;;5082926;28;20024;-80
2021/01/15 00:07:13;;;;;;;11.90;6.83;;;;;;;;;;5066048;28;20047;-80
2021/01/15 00:09:40;;;;;;;12.27;6.97;;;;;;;;;;5082857;28;20035;-79
2021/01/15 00:12:06;;;;;;;10.50;6.67;;;;;;;;;;5082436;28;20032;-80
2021/01/15 00:14:32;;;;;;;10.43;6.10;;;;;;;;;;5082481;28;20025;-79
2021/01/15 00:16:58;;;;;;;11.93;7.03;;;;;;;;;;5066434;28;20047;-79
2021/01/15 00:19:24;;;;;;;12.83;7.87;;;;;;;;;;5099834;28;20058;-79
2021/01/15 00:21:50;;;;;;;13.40;6.60;;;;;;;;;;5081667;28;20028;-79
2021/01/15 00:24:20;;;;;;;12.23;7.37;;;;;;;;;;5065084;28;20071;-79
2021/01/15 00:26:46;;;;;;;8.57;5.33;;;;;;;;;;5082036;28;20028;-80
2021/01/15 00:29:17;;;;;;;9.07;6.50;;;;;;;;;;5082999;28;20021;-80
2021/01/15 00:31:46;;;;;;;14.20;7.20;;;;;;;;;;5102280;28;20053;-80
2021/01/15 00:34:13;;;;;;;13.77;7.67;;;;;;;;;;5082977;28;20380;-80
2021/01/15 00:36:40;;;;;;;10.63;6.60;;;;;;;;;;5067249;28;20032;-80
2021/01/15 00:39:08;;;;;;;12.03;7.27;;;;;;;;;;5085519;28;20389;-80
2021/01/15 00:41:34;;;;;;;11.40;6.57;;;;;;;;;;5070441;28;20058;-81
2021/01/15 00:44:01;;;;;;;9.57;6.87;;;;;;;;;;5087386;28;20037;-81
2021/01/15 00:46:31;;;;;;;12.93;7.20;;;;;;;;;;5084096;28;20067;-80
2021/01/15 00:48:58;;;;;;;13.33;6.97;;;;;;;;;;5102366;28;20142;-81
2021/01/15 00:51:24;;;;;;;12.30;7.23;;;;;;;;;;5101576;28;20248;-80
2021/01/15 00:53:50;;;;;;;11.73;7.20;;;;;;;;;;5084336;28;20082;-80
2021/01/15 00:56:19;;;;;;;7.47;5.63;;;;;;;;;;5101531;28;20114;-80
2021/01/15 00:58:46;;;;;;;15.60;8.33;;;;;;;;;;5083921;28;20031;-80
2021/01/15 01:01:13;;;;;;;12.43;8.30;;;;;;;;;;5068325;28;20028;-81
2021/01/15 01:03:39;;;;;;;10.73;6.27;;;;;;;;;;5085088;28;20103;-81
2021/01/15 01:06:09;;;;;;;12.13;8.00;;;;;;;;;;5084610;28;20068;-80
2021/01/15 01:08:35;;;;;;;11.73;6.73;;;;;;;;;;5085649;28;20031;-81
2021/01/15 01:11:01;;;;;;;14.83;8.77;;;;;;;;;;5069665;28;20028;-81
2021/01/15 01:13:27;;;;;;;12.87;7.37;;;;;;;;;;5086478;28;20034;-81
2021/01/15 01:15:53;;;;;;;11.00;7.00;;;;;;;;;;5103113;28;20063;-80
2021/01/15 01:18:19;;;;;;;10.00;7.33;;;;;;;;;;5081343;28;20028;-80
2021/01/15 01:20:45;;;;;;;9.47;7.00;;;;;;;;;;5065148;28;20032;-80
2021/01/15 01:23:11;;;;;;;9.47;7.23;;;;;;;;;;5064426;28;20067;-80
2021/01/15 01:25:37;;;;;;;11.67;7.80;;;;;;;;;;5081722;28;20032;-81
2021/01/15 01:28:03;;;;;;;15.50;8.23;;;;;;;;;;5065708;28;20492;-81
2021/01/15 01:30:29;;;;;;;15.17;8.53;;;;;;;;;;5067123;28;20028;-81
2021/01/15 01:32:55;;;;;;;11.70;8.63;;;;;;;;;;5067877;28;20040;-81
2021/01/15 01:35:21;;;;;;;14.73;9.13;;;;;;;;;;5084014;28;20062;-81
2021/01/15 01:37:47;;;;;;;11.97;6.90;;;;;;;;;;5068591;28;20043;-80
2021/01/15 01:40:15;;;;;;;11.87;7.23;;;;;;;;;;5104306;28;20024;-81
2021/01/15 01:42:41;;;;;;;10.03;6.73;;;;;;;;;;5071189;28;20076;-81
2021/01/15 01:45:08;;;;;;;11.33;8.23;;;;;;;;;;5072976;28;20039;-81
2021/01/15 01:47:34;;;;;;;10.83;7.43;;;;;;;;;;5074247;28;20040;-80
2021/01/15 01:50:00;;;;;;;11.87;6.67;;;;;;;;;;5106802;28;20055;-81
2021/01/15 01:52:26;;;;;;;12.30;8.13;;;;;;;;;;5070888;28;20024;-80
2021/01/15 01:54:52;;;;;;;13.07;8.97;;;;;;;;;;5087166;28;20024;-81
2021/01/15 01:57:18;;;;;;;11.20;8.07;;;;;;;;;;5084612;28;20032;-80
2021/01/15 01:59:44;;;;;;;13.37;8.73;;;;;;;;;;5066934;28;20032;-80
2021/01/15 02:02:10;;;;;;;15.53;8.27;;;;;;;;;;5084087;28;20032;-81
2021/01/15 02:04:36;;;;;;;11.80;8.10;;;;;;;;;;5102376;28;20032;-81
2021/01/15 02:07:02;;;;;;;10.63;7.93;;;;;;;;;;5084051;28;20043;-81
2021/01/15 02:09:33;;;;;;;12.87;8.03;;;;;;;;;;5085431;28;20401;-80
2021/01/15 02:12:07;;;;;;;14.10;8.47;;;;;;;;;;5086560;28;20559;-81
2021/01/15 02:14:36;;;;;;;12.13;8.20;;;;;;;;;;5090323;28;20024;-81
2021/01/15 02:17:03;;;;;;;12.50;9.37;;;;;;;;;;5091432;28;20037;-81
2021/01/15 02:19:42;;;;;;;11.63;8.10;;;;;;;;;;5108255;28;20020;-82
2021/01/15 02:22:26;;;;;;;12.77;8.23;;;;;;;;;;5105470;28;20028;-80
2021/01/15 02:24:58;;;;;;;13.52;7.88;;;;;;;;;;5099666;28;20028;-80
2021/01/15 02:27:37;;;;;;;11.07;7.53;;;;;;;;;;5085289;28;20044;-81
2021/01/15 02:30:10;;;;;;;13.73;8.43;;;;;;;;;;5086749;28;20035;-80
2021/01/15 02:32:36;;;;;;;18.23;7.60;;;;;;;;;;5105106;28;20036;-80
2021/01/15 02:35:21;;;;;;;10.10;7.13;;;;;;;;;;5087580;28;20031;-80
2021/01/15 02:37:55;;;;;;;10.80;6.80;;;;;;;;;;5107783;28;20416;-82
2021/01/15 02:40:24;;;;;;;15.38;7.63;;;;;;;;;;5087060;28;20020;-81
2021/01/15 02:42:51;;;;;;;8.80;6.07;;;;;;;;;;5086414;28;20024;-80
2021/01/15 02:45:18;;;;;;;8.40;4.97;;;;;;;;;;5069161;28;20038;-80
2021/01/15 02:47:54;;;;;;;11.47;6.17;;;;;;;;;;5087451;28;20432;-80
2021/01/15 02:50:21;;;;;;;7.90;5.03;;;;;;;;;;5086215;28;20488;-81
2021/01/15 02:52:47;;;;;;;8.60;5.17;;;;;;;;;;5086646;28;20024;-81
2021/01/15 02:55:14;;;;;;;8.50;4.87;;;;;;;;;;5085606;28;20027;-80
2021/01/15 02:57:40;;;;;;;7.93;4.90;;;;;;;;;;5085060;28;20462;-81
2021/01/15 03:00:08;;;;;;;8.10;5.23;;;;;;;;;;5086078;28;20028;-81
2021/01/15 03:02:37;;;;;;;6.77;4.90;;;;;;;;;;5085253;28;20127;-81
2021/01/15 03:05:10;;;;;;;6.50;4.90;;;;;;;;;;5103674;28;20036;-80
2021/01/15 03:07:36;;;;;;;10.30;5.93;;;;;;;;;;5083679;28;20035;-80
2021/01/15 03:10:03;;;;;;;8.23;5.03;;;;;;;;;;5067529;28;20081;-80
2021/01/15 03:12:30;;;;;;;10.37;6.33;;;;;;;;;;5083145;28;20026;-80
2021/01/15 03:14:56;;;;;;;8.03;5.23;;;;;;;;;;5084384;28;20384;-81
2021/01/15 03:17:23;;;;;;;9.87;5.73;;;;;;;;;;5085033;28;20054;-81
2021/01/15 03:19:50;;;;;;;8.83;5.80;;;;;;;;;;5101710;28;20362;-80
2021/01/15 03:22:18;;;;;;;8.23;5.33;;;;;;;;;;5068417;28;20028;-80
2021/01/15 03:24:57;;;;;;;11.70;5.93;;;;;;;;;;5085062;28;20476;-80
2021/01/15 03:27:24;;;;;;;10.30;5.53;;;;;;;;;;5104260;28;20512;-80
2021/01/15 03:29:50;;;;;;;7.27;5.20;;;;;;;;;;5088137;28;20028;-80
2021/01/15 03:32:17;;;;;;;7.93;5.17;;;;;;;;;;5088708;28;20097;-80
2021/01/15 03:34:43;;;;;;;7.97;4.77;;;;;;;;;;5106603;28;20024;-80
2021/01/15 03:37:09;;;;;;;8.17;5.53;;;;;;;;;;5090469;28;20032;-80
2021/01/15 03:39:35;;;;;;;7.33;5.30;;;;;;;;;;5088777;28;20054;-79
2021/01/15 03:42:01;;;;;;;7.87;5.13;;;;;;;;;;5085229;28;20020;-80
2021/01/15 03:44:28;;;;;;;9.83;6.70;;;;;;;;;;5086524;28;20024;-80
2021/01/15 03:46:54;;;;;;;9.17;6.07;;;;;;;;;;5087226;28;20051;-80
2021/01/15 03:49:20;;;;;;;10.27;5.50;;;;;;;;;;5087399;28;20416;-80
2021/01/15 03:51:46;;;;;;;7.37;5.30;;;;;;;;;;5106696;28;20084;-80
2021/01/15 03:54:12;;;;;;;7.20;5.10;;;;;;;;;;5071056;28;20051;-81
2021/01/15 03:56:38;;;;;;;11.43;5.90;;;;;;;;;;5106249;28;20028;-80
2021/01/15 03:59:04;;;;;;;10.23;5.43;;;;;;;;;;5089644;28;20042;-80
2021/01/15 04:01:30;;;;;;;9.30;6.20;;;;;;;;;;5087798;28;20028;-80
2021/01/15 04:03:56;;;;;;;9.87;6.00;;;;;;;;;;5072175;28;20032;-80
2021/01/15 04:06:23;;;;;;;11.00;5.87;;;;;;;;;;5089011;28;20038;-80
2021/01/15 04:08:49;;;;;;;9.40;5.17;;;;;;;;;;5106746;28;20524;-81
2021/01/15 04:11:15;;;;;;;7.73;5.33;;;;;;;;;;5090499;28;20036;-81
2021/01/15 04:13:41;;;;;;;9.80;6.00;;;;;;;;;;5090170;28;20043;-80
2021/01/15 04:16:07;;;;;;;12.33;5.00;;;;;;;;;;5073008;28;20028;-80
2021/01/15 04:18:33;;;;;;;8.17;5.43;;;;;;;;;;5087147;28;20508;-80
2021/01/15 04:21:05;;;;;;;8.90;6.20;;;;;;;;;;5107171;28;20025;-80
2021/01/15 04:23:31;;;;;;;10.77;6.10;;;;;;;;;;5089595;28;20020;-80
2021/01/15 04:25:57;;;;;;;7.10;4.97;;;;;;;;;;5089669;28;20032;-80
2021/01/15 04:28:23;;;;;;;8.93;5.13;;;;;;;;;;5091311;28;20020;-80
2021/01/15 04:30:49;;;;;;;8.33;5.57;;;;;;;;;;5109481;28;20024;-81
2021/01/15 04:33:15;;;;;;;8.77;6.03;;;;;;;;;;5091925;28;20040;-81
2021/01/15 04:35:41;;;;;;;10.70;5.83;;;;;;;;;;5090144;28;20032;-81
2021/01/15 04:38:07;;;;;;;9.00;5.77;;;;;;;;;;5088422;28;20051;-81
2021/01/15 04:40:33;;;;;;;7.83;5.63;;;;;;;;;;5107275;28;20024;-80
2021/01/15 04:43:01;;;;;;;12.17;5.77;;;;;;;;;;5067634;28;20027;-80
2021/01/15 04:45:28;;;;;;;8.83;5.80;;;;;;;;;;5100051;28;20039;-80
2021/01/15 04:47:54;;;;;;;9.33;6.20;;;;;;;;;;5066282;28;20028;-80
2021/01/15 04:50:20;;;;;;;7.87;5.03;;;;;;;;;;5101013;28;20039;-81
2021/01/15 04:52:53;;;;;;;14.37;5.87;;;;;;;;;;5083593;28;20544;-80
2021/01/15 04:55:23;;;;;;;12.77;5.80;;;;;;;;;;5083715;28;20420;-80
2021/01/15 04:57:51;;;;;;;7.77;5.37;;;;;;;;;;5101614;28;20032;-80
2021/01/15 05:00:22;;;;;;;5.23;3.57;;;;;;;;;;5083694;28;20050;-80
2021/01/15 05:02:48;;;;;;;10.43;5.33;;;;;;;;;;5083563;28;20401;-80
2021/01/15 05:05:18;;;;;;;10.67;4.47;;;;;;;;;;5083549;28;20032;-80
2021/01/15 05:07:50;;;;;;;7.27;4.90;;;;;;;;;;5084817;28;20036;-80
2021/01/15 05:10:18;;;;;;;8.60;5.67;;;;;;;;;;5086615;28;20024;-80
2021/01/15 05:12:47;;;;;;;9.70;5.90;;;;;;;;;;5086547;28;20491;-81
2021/01/15 05:15:14;;;;;;;9.37;5.90;;;;;;;;;;5106409;28;20052;-80
2021/01/15 05:17:41;;;;;;;11.67;5.77;;;;;;;;;;5072618;28;20028;-80
2021/01/15 05:20:08;;;;;;;11.27;5.93;;;;;;;;;;5074792;28;20029;-80
2021/01/15 05:22:34;;;;;;;8.60;6.30;;;;;;;;;;5075909;28;20036;-80
2021/01/15 05:25:00;;;;;;;11.60;6.40;;;;;;;;;;5077269;28;20118;-80
2021/01/15 05:27:59;;;;;;;10.37;5.67;;;;;;;;;;5091495;28;20040;-80
2021/01/15 05:30:23;;;;;;;8.17;5.63;;;;;;;;;;5085602;28;20024;-80
2021/01/15 05:32:50;;;;;;;10.07;6.43;;;;;;;;;;5101379;28;20030;-80
2021/01/15 05:35:16;;;;;;;9.30;5.23;;;;;;;;;;5083926;28;20032;-80
2021/01/15 05:37:43;;;;;;;9.90;6.17;;;;;;;;;;5102132;28;20024;-80
2021/01/15 05:40:10;;;;;;;9.43;6.60;;;;;;;;;;5068594;28;20490;-80
2021/01/15 05:42:46;;;;;;;10.30;6.53;;;;;;;;;;5068328;28;20048;-79
2021/01/15 05:45:12;;;;;;;10.07;5.50;;;;;;;;;;5102178;28;20031;-80
2021/01/15 05:47:43;;;;;;;10.00;6.10;;;;;;;;;;5068246;28;20489;-80
2021/01/15 05:50:09;;;;;;;7.63;5.03;;;;;;;;;;5086803;28;20040;-80
2021/01/15 05:52:36;;;;;;;10.13;6.00;;;;;;;;;;5087173;28;20084;-80
2021/01/15 05:55:14;;;;;;;9.37;6.13;;;;;;;;;;5086955;28;20028;-80
2021/01/15 05:57:40;;;;;;;11.37;6.43;;;;;;;;;;5087405;28;20382;-80
2021/01/15 06:00:07;;;;;;;8.17;5.87;;;;;;;;;;5085822;28;20031;-80
2021/01/15 06:02:33;;;;;;;9.17;5.57;;;;;;;;;;5085241;28;20382;-80
2021/01/15 06:04:59;;;;;;;9.03;6.73;;;;;;;;;;5105453;28;20055;-80
2021/01/15 06:07:26;;;;;;;8.73;5.97;;;;;;;;;;5071257;28;20047;-79
2021/01/15 06:09:59;;;;;;;8.50;6.03;;;;;;;;;;5090642;28;20028;-80
2021/01/15 06:12:25;;;;;;;10.70;6.43;;;;;;;;;;5091418;28;20024;-81
2021/01/15 06:14:58;;;;;;;8.20;6.10;;;;;;;;;;5074451;28;20031;-80
2021/01/15 06:17:25;;;;;;;11.03;6.83;;;;;;;;;;5091796;28;20496;-80
2021/01/15 06:20:00;;;;;;;9.93;6.03;;;;;;;;;;5110440;28;20047;-80
2021/01/15 06:22:32;;;;;;;7.40;5.30;;;;;;;;;;5090999;28;20005;-80
2021/01/15 06:25:04;;;;;;;9.77;6.10;;;;;;;;;;5087729;28;20584;-79
2021/01/15 06:27:34;;;;;;;11.30;6.60;;;;;;;;;;5084349;28;20039;-81
2021/01/15 06:30:02;;;;;;;10.77;6.77;;;;;;;;;;5085105;28;20437;-81
2021/01/15 06:32:28;;;;;;;11.20;6.37;;;;;;;;;;5084785;28;20028;-80
2021/01/15 06:34:54;;;;;;;10.57;6.70;;;;;;;;;;5067674;28;20036;-80
2021/01/15 06:37:20;;;;;;;11.13;5.73;;;;;;;;;;5068748;28;20060;-80
2021/01/15 06:40:02;;;;;;;12.03;6.80;;;;;;;;;;5084884;28;20185;-81
2021/01/15 06:42:31;;;;;;;11.43;6.70;;;;;;;;;;5084877;28;20044;-80
2021/01/15 06:45:12;;;;;;;11.67;6.13;;;;;;;;;;5102193;28;20094;-80
2021/01/15 06:47:40;;;;;;;10.37;6.50;;;;;;;;;;5102587;28;20032;-81
2021/01/15 06:50:07;;;;;;;9.17;7.20;;;;;;;;;;5103380;28;20108;-80
2021/01/15 06:52:37;;;;;;;7.63;5.97;;;;;;;;;;5085099;28;20078;-81
2021/01/15 06:55:04;;;;;;;10.50;6.77;;;;;;;;;;5102419;28;20020;-81
2021/01/15 06:57:36;;;;;;;9.90;6.37;;;;;;;;;;5104686;28;20024;-81
2021/01/15 07:00:04;;;;;;;7.90;6.00;;;;;;;;;;5101694;28;20061;-80
2021/01/15 07:02:38;;;;;;;10.47;6.83;;;;;;;;;;5080339;28;20363;-80
2021/01/15 07:05:04;;;;;;;9.67;5.80;;;;;;;;;;5098134;28;20027;-80
2021/01/15 07:07:31;;;;;;;14.23;6.73;;;;;;;;;;5079403;28;20032;-80
2021/01/15 07:09:59;;;;;;;9.73;6.80;;;;;;;;;;5082239;28;20088;-80
2021/01/15 07:12:26;;;;;;;10.30;6.50;;;;;;;;;;5102718;28;20066;-80
2021/01/15 07:14:56;;;;;;;9.47;5.90;;;;;;;;;;5104867;28;20020;-80
2021/01/15 07:17:30;;;;;;;10.23;6.03;;;;;;;;;;5082408;28;20063;-80
2021/01/15 07:20:05;;;;;;;10.37;6.70;;;;;;;;;;5080684;28;20020;-80
2021/01/15 07:22:43;;;;;;;9.27;5.93;;;;;;;;;;5081265;28;20051;-80
2021/01/15 07:25:09;;;;;;;8.67;6.70;;;;;;;;;;5100529;28;20437;-81
2021/01/15 07:27:36;;;;;;;10.77;6.63;;;;;;;;;;5081910;28;20043;-81
2021/01/15 07:30:03;;;;;;;12.33;7.20;;;;;;;;;;5080724;28;20035;-83
2021/01/15 07:32:30;;;;;;;16.43;7.07;;;;;;;;;;5080141;28;20032;-81
2021/01/15 07:35:00;;;;;;;10.23;7.20;;;;;;;;;;5080153;28;20059;-81
2021/01/15 07:37:28;;;;;;;10.50;7.30;;;;;;;;;;5079132;28;20035;-81
2021/01/15 07:40:03;;;;;;;13.60;7.70;;;;;;;;;;5079474;28;20035;-80
2021/01/15 07:42:39;;;;;;;10.80;7.67;;;;;;;;;;5079468;28;20024;-80
2021/01/15 07:45:05;;;;;;;14.27;7.87;;;;;;;;;;5097635;28;20024;-81
2021/01/15 07:47:37;;;;;;;9.40;7.67;;;;;;;;;;5063892;28;20059;-80
2021/01/15 07:50:03;;;;;;;12.70;7.47;;;;;;;;;;5079037;28;20048;-80
2021/01/15 07:52:29;;;;;;;9.60;6.80;;;;;;;;;;5097833;28;20024;-80
2021/01/15 07:55:02;;;;;;;12.93;7.17;;;;;;;;;;5080867;28;20032;-81
2021/01/15 07:57:32;;;;;;;12.07;7.33;;;;;;;;;;5081058;28;20054;-81
2021/01/15 07:59:58;;;;;;;12.40;6.90;;;;;;;;;;5080711;28;20045;-80
2021/01/15 08:02:24;;;;;;;12.33;7.30;;;;;;;;;;5064157;28;20038;-82
2021/01/15 08:04:50;;;;;;;11.23;7.10;;;;;;;;;;5073550;28;20092;-83
2021/01/15 08:07:24;;;;;;;13.37;7.13;;;;;;;;;;5085309;28;20461;-81
2021/01/15 08:09:50;;;;;;;11.63;6.57;;;;;;;;;;5068757;28;20024;-81
2021/01/15 08:12:16;;;;;;;10.33;6.67;;;;;;;;;;5085483;28;20035;-81
2021/01/15 08:14:42;;;;;;;11.87;7.03;;;;;;;;;;5089077;28;20024;-81
2021/01/15 08:17:11;;;;;;;14.77;7.40;;;;;;;;;;5087137;28;20393;-84
2021/01/15 08:19:38;;;;;;;9.63;6.97;;;;;;;;;;5072593;28;20036;-81
2021/01/15 08:22:08;;;;;;;11.63;7.43;;;;;;;;;;5088214;28;20028;-82
2021/01/15 08:24:44;;;;;;;9.33;6.17;;;;;;;;;;5088810;28;20089;-82
2021/01/15 08:27:15;;;;;;;8.87;6.43;;;;;;;;;;5088342;28;20032;-81
2021/01/15 08:29:41;;;;;;;10.57;7.13;;;;;;;;;;5086014;28;20085;-80
2021/01/15 08:32:08;;;;;;;12.20;7.13;;;;;;;;;;5066482;28;20032;-80
2021/01/15 08:34:35;;;;;;;12.37;7.20;;;;;;;;;;5100886;28;20436;-81
2021/01/15 08:37:03;;;;;;;11.30;7.20;;;;;;;;;;5078942;28;20028;-81
2021/01/15 08:39:29;;;;;;;10.70;7.53;;;;;;;;;;5097384;28;20039;-80
2021/01/15 08:41:59;;;;;;;10.87;7.43;;;;;;;;;;5097723;28;20028;-80
2021/01/15 08:44:33;;;;;;;9.87;7.23;;;;;;;;;;5062863;28;20032;-81
2021/01/15 08:46:59;;;;;;;12.65;7.13;;;;;;;;;;5097474;28;20119;-80
2021/01/15 08:49:25;;;;;;;10.57;7.33;;;;;;;;;;5079792;28;20052;-80
2021/01/15 08:51:53;;;;;;;11.80;7.57;;;;;;;;;;5063505;28;20031;-80
2021/01/15 08:54:21;;;;;;;10.90;7.47;;;;;;;;;;5079799;28;20115;-81
2021/01/15 08:56:49;;;;;;;15.00;7.43;;;;;;;;;;5079419;28;20062;-81
2021/01/15 08:59:27;;;;;;;11.97;8.00;;;;;;;;;;5079447;28;20032;-80
2021/01/15 09:02:11;;;;;;;10.27;7.53;;;;;;;;;;5085940;28;20054;-81
2021/01/15 09:04:38;;;;;;;12.10;7.93;;;;;;;;;;5101938;28;20020;-81
2021/01/15 09:07:06;;;;;;;13.63;7.60;;;;;;;;;;5080213;28;20107;-81
2021/01/15 09:09:33;;;;;;;13.50;7.97;;;;;;;;;;5083753;28;20020;-80
2021/01/15 09:12:06;;;;;;;11.63;7.90;;;;;;;;;;5084654;28;20059;-80
2021/01/15 09:14:36;;;;;;;11.80;7.90;;;;;;;;;;5084051;28;20106;-80
2021/01/15 09:17:06;;;;;;;11.93;7.73;;;;;;;;;;5082273;28;20039;-81
2021/01/15 09:19:32;;;;;;;15.43;9.30;;;;;;;;;;5082839;28;20030;-80
2021/01/15 09:22:00;;;;;;;13.30;8.80;;;;;;;;;;5097519;28;20024;-81
2021/01/15 09:24:27;;;;;;;14.47;9.17;;;;;;;;;;5079236;28;20024;-80
2021/01/15 09:26:57;;;;;;;15.60;8.70;;;;;;;;;;5063284;28;20050;-80
2021/01/15 09:29:23;;;;;;;15.37;8.87;;;;;;;;;;5098806;28;20456;-80
2021/01/15 09:31:49;;;;;;;18.03;8.37;;;;;;;;;;5081658;28;20050;-80
2021/01/15 09:34:15;;;;;;;14.33;9.33;;;;;;;;;;5065381;28;20032;-80
2021/01/15 09:36:43;;;;;;;12.90;8.47;;;;;;;;;;5083919;28;20028;-82
2021/01/15 09:39:09;;;;;;;12.50;8.83;;;;;;;;;;5085184;28;20024;-81
2021/01/15 09:41:36;;;;;;;12.70;8.37;;;;;;;;;;5064055;28;20032;-80
2021/01/15 09:44:02;;;;;;;15.17;8.80;;;;;;;;;;5099354;28;20092;-80
2021/01/15 09:46:29;;;;;;;12.27;8.70;;;;;;;;;;5080805;28;20040;-80
2021/01/15 09:48:58;;;;;;;13.40;9.10;;;;;;;;;;5101345;28;20241;-80
2021/01/15 09:51:28;;;;;;;13.47;8.20;;;;;;;;;;5103481;28;20055;-81
2021/01/15 09:53:58;;;;;;;15.17;8.80;;;;;;;;;;5086805;28;20024;-80
2021/01/15 09:56:31;;;;;;;17.13;8.43;;;;;;;;;;5086008;28;20123;-81
2021/01/15 09:58:58;;;;;;;13.93;8.77;;;;;;;;;;5079883;28;20020;-80
2021/01/15 10:01:28;;;;;;;23.23;9.93;;;;;;;;;;5079199;28;20021;-81
2021/01/15 10:03:55;;;;;;;15.37;7.57;;;;;;;;;;5080643;28;20039;-80
2021/01/15 10:06:21;;;;;;;20.53;9.77;;;;;;;;;;5081191;28;20035;-81
2021/01/15 10:08:47;;;;;;;21.20;8.60;;;;;;;;;;5079977;28;20032;-80
2021/01/15 10:11:24;;;;;;;14.10;8.90;;;;;;;;;;5077632;28;20119;-81
2021/01/15 10:13:50;;;;;;;16.93;9.03;;;;;;;;;;5094972;28;20062;-81
2021/01/15 10:16:16;;;;;;;16.77;8.80;;;;;;;;;;5060584;28;20393;-80
2021/01/15 10:18:42;;;;;;;13.30;8.33;;;;;;;;;;5096165;28;20028;-80
2021/01/15 10:21:08;;;;;;;19.80;8.80;;;;;;;;;;5078757;28;20047;-80
2021/01/15 10:23:35;;;;;;;12.13;8.20;;;;;;;;;;5064171;28;20378;-80
2021/01/15 10:26:01;;;;;;;13.03;7.80;;;;;;;;;;5090051;28;20039;-80
2021/01/15 10:28:27;;;;;;;12.70;7.63;;;;;;;;;;5071568;28;20046;-80
2021/01/15 10:30:53;;;;;;;13.43;8.73;;;;;;;;;;5084157;28;20029;-80
2021/01/15 10:33:23;;;;;;;12.67;7.17;;;;;;;;;;5077693;28;20055;-81
2021/01/15 10:35:52;;;;;;;14.37;8.10;;;;;;;;;;5077405;28;20024;-80
2021/01/15 10:38:18;;;;;;;15.53;8.40;;;;;;;;;;5077669;28;20036;-81
2021/01/15 10:40:47;;;;;;;17.93;9.83;;;;;;;;;;5081889;28;20405;-80
2021/01/15 10:43:13;;;;;;;15.50;9.77;;;;;;;;;;5077648;28;20462;-81
2021/01/15 10:45:40;;;;;;;20.13;9.73;;;;;;;;;;5061399;28;20048;-80
2021/01/15 10:48:06;;;;;;;14.03;9.10;;;;;;;;;;5102530;28;20024;-81
2021/01/15 10:50:32;;;;;;;14.83;9.50;;;;;;;;;;5103705;28;20028;-81
2021/01/15 10:52:58;;;;;;;15.43;8.73;;;;;;;;;;5084022;28;20446;-81
2021/01/15 10:55:26;;;;;;;22.20;9.17;;;;;;;;;;5086678;28;20035;-81
2021/01/15 10:57:52;;;;;;;21.97;8.53;;;;;;;;;;5066020;28;20024;-81
2021/01/15 11:00:18;;;;;;;16.80;8.90;;;;;;;;;;5083369;28;20020;-81
2021/01/15 11:02:51;;;;;;;20.43;8.73;;;;;;;;;;5081856;28;20035;-82
2021/01/15 11:05:17;;;;;;;19.47;9.13;;;;;;;;;;5101283;28;20020;-81
2021/01/15 11:07:44;;;;;;;15.87;9.87;;;;;;;;;;5082006;28;20032;-80
2021/01/15 11:10:11;;;;;;;16.30;9.50;;;;;;;;;;5100026;28;20477;-80
2021/01/15 11:12:37;;;;;;;20.07;8.97;;;;;;;;;;5081848;28;20024;-80
2021/01/15 11:15:03;;;;;;;17.60;10.30;;;;;;;;;;5064309;28;20024;-81
2021/01/15 11:17:29;;;;;;;14.23;9.47;;;;;;;;;;5082278;28;20035;-81
2021/01/15 11:19:56;;;;;;;20.03;10.57;;;;;;;;;;5098484;28;20027;-81
2021/01/15 11:22:22;;;;;;;22.23;10.37;;;;;;;;;;5064446;28;20123;-81
2021/01/15 11:24:48;;;;;;;15.00;10.10;;;;;;;;;;5082087;28;20059;-81
2021/01/15 11:27:14;;;;;;;19.03;10.57;;;;;;;;;;5100730;28;20075;-80
2021/01/15 11:29:40;;;;;;;19.90;10.10;;;;;;;;;;5066561;28;20032;-81
2021/01/15 11:32:06;;;;;;;18.17;9.47;;;;;;;;;;5084589;28;20126;-80
2021/01/15 11:34:32;;;;;;;17.50;10.60;;;;;;;;;;5088739;28;20040;-81
2021/01/15 11:37:00;;;;;;;20.43;9.60;;;;;;;;;;5101775;28;20166;-80
2021/01/15 11:39:26;;;;;;;14.97;9.63;;;;;;;;;;5084694;28;20123;-80
2021/01/15 11:41:54;;;;;;;17.27;9.37;;;;;;;;;;5082617;28;20123;-81
2021/01/15 11:44:20;;;;;;;17.53;9.23;;;;;;;;;;5082828;28;20448;-81
2021/01/15 11:46:46;;;;;;;14.93;9.50;;;;;;;;;;5065819;28;20075;-81
2021/01/15 11:49:12;;;;;;;19.60;9.20;;;;;;;;;;5083094;28;20048;-81
2021/01/15 11:51:38;;;;;;;16.63;9.53;;;;;;;;;;5083981;28;20054;-80
2021/01/15 11:54:12;;;;;;;18.23;10.47;;;;;;;;;;5085038;28;20048;-82
2021/01/15 11:56:38;;;;;;;18.40;9.70;;;;;;;;;;5087950;28;20032;-80
2021/01/15 11:59:04;;;;;;;18.43;8.70;;;;;;;;;;5086827;28;20044;-81
2021/01/15 12:01:30;;;;;;;18.57;11.13;;;;;;;;;;5089263;28;20028;-80
2021/01/15 12:03:56;;;;;;;17.23;9.53;;;;;;;;;;5073924;28;20028;-81
2021/01/15 12:06:22;;;;;;;20.20;10.10;;;;;;;;;;5089613;28;20036;-81
2021/01/15 12:08:48;;;;;;;21.40;10.77;;;;;;;;;;5072773;28;20492;-80
2021/01/15 12:11:14;;;;;;;35.23;12.23;;;;;;;;;;5088805;28;20032;-80
2021/01/15 12:13:40;;;;;;;20.70;10.40;;;;;;;;;;5069759;28;20074;-81
2021/01/15 12:16:06;;;;;;;21.20;10.37;;;;;;;;;;5072041;28;20032;-81
2021/01/15 12:18:32;;;;;;;17.27;10.00;;;;;;;;;;5087155;28;20032;-81
2021/01/15 12:20:58;;;;;;;19.37;11.03;;;;;;;;;;5088290;28;20039;-81
2021/01/15 12:23:24;;;;;;;18.83;11.30;;;;;;;;;;5068698;28;20124;-81
2021/01/15 12:25:50;;;;;;;17.23;11.20;;;;;;;;;;5086568;28;20031;-81
2021/01/15 12:28:17;;;;;;;18.67;10.93;;;;;;;;;;5097639;28;20058;-80
2021/01/15 12:30:44;;;;;;;18.17;10.97;;;;;;;;;;5079743;28;20020;-81
2021/01/15 12:33:10;;;;;;;21.23;10.67;;;;;;;;;;5080642;28;20119;-81
2021/01/15 12:35:37;;;;;;;27.37;10.87;;;;;;;;;;5099098;28;20021;-81
2021/01/15 12:38:04;;;;;;;22.53;10.87;;;;;;;;;;5065056;28;20470;-81
2021/01/15 12:40:30;;;;;;;20.90;11.10;;;;;;;;;;5064997;28;20028;-81
2021/01/15 12:42:56;;;;;;;18.77;12.07;;;;;;;;;;5062968;28;20433;-81
2021/01/15 12:45:22;;;;;;;23.53;10.60;;;;;;;;;;5078353;28;20067;-81
2021/01/15 12:47:48;;;;;;;18.63;12.13;;;;;;;;;;5097568;28;20119;-81
2021/01/15 12:50:14;;;;;;;21.70;12.33;;;;;;;;;;5062331;28;20448;-80
2021/01/15 12:52:40;;;;;;;20.83;12.90;;;;;;;;;;5079586;28;20054;-80
2021/01/15 12:55:06;;;;;;;23.70;10.73;;;;;;;;;;5080034;28;20024;-80
2021/01/15 12:57:32;;;;;;;23.67;12.63;;;;;;;;;;5063086;28;20358;-82
2021/01/15 12:59:58;;;;;;;15.30;10.40;;;;;;;;;;5063007;28;20032;-80
2021/01/15 13:02:24;;;;;;;16.27;10.43;;;;;;;;;;5080849;28;20093;-82
2021/01/15 13:04:50;;;;;;;23.43;10.57;;;;;;;;;;5062943;28;20122;-80
2021/01/15 13:07:16;;;;;;;26.50;11.23;;;;;;;;;;5062677;28;20042;-80
2021/01/15 13:09:42;;;;;;;21.73;10.77;;;;;;;;;;5063004;28;20028;-82
2021/01/15 13:12:09;;;;;;;17.23;11.07;;;;;;;;;;5081359;28;20060;-81
2021/01/15 13:14:35;;;;;;;21.20;11.63;;;;;;;;;;5080911;28;20028;-81
2021/01/15 13:17:05;;;;;;;26.40;12.23;;;;;;;;;;5078354;28;20036;-81
2021/01/15 13:19:31;;;;;;;16.27;10.20;;;;;;;;;;5078418;28;20028;-81
2021/01/15 13:21:57;;;;;;;17.80;10.77;;;;;;;;;;5078757;28;20024;-82
2021/01/15 13:24:23;;;;;;;21.27;11.10;;;;;;;;;;5061438;28;20050;-81
2021/01/15 13:26:49;;;;;;;18.60;10.63;;;;;;;;;;5061245;28;20036;-81
2021/01/15 13:29:15;;;;;;;16.23;10.87;;;;;;;;;;5061192;28;20032;-82
2021/01/15 13:31:41;;;;;;;16.40;9.90;;;;;;;;;;5061674;28;20047;-81
2021/01/15 13:34:07;;;;;;;17.90;10.80;;;;;;;;;;5079100;28;20028;-80
2021/01/15 13:36:33;;;;;;;20.60;10.73;;;;;;;;;;5077875;28;20050;-82
2021/01/15 13:39:00;;;;;;;16.10;10.03;;;;;;;;;;5061738;28;20381;-81
2021/01/15 13:41:26;;;;;;;14.50;9.40;;;;;;;;;;5062057;28;20032;-81
2021/01/15 13:43:52;;;;;;;16.33;9.90;;;;;;;;;;5072615;28;20028;-85
2021/01/15 13:46:18;;;;;;;14.80;8.93;;;;;;;;;;5068092;28;20126;-82
2021/01/15 13:48:44;;;;;;;20.03;9.03;;;;;;;;;;5080122;28;20418;-81
2021/01/15 13:51:17;;;;;;;14.27;8.40;;;;;;;;;;5081637;28;20427;-81
2021/01/15 13:53:43;;;;;;;20.83;9.23;;;;;;;;;;5084115;28;20020;-80
2021/01/15 13:56:09;;;;;;;19.73;11.10;;;;;;;;;;5068273;28;20035;-81
2021/01/15 13:58:37;;;;;;;19.30;12.00;;;;;;;;;;5066258;28;20056;-81
2021/01/15 14:01:03;;;;;;;22.10;11.20;;;;;;;;;;5085591;28;20351;-81
2021/01/15 14:03:29;;;;;;;17.37;10.67;;;;;;;;;;5102267;28;20031;-80
2021/01/15 14:05:55;;;;;;;17.60;9.77;;;;;;;;;;5066254;28;20028;-82
2021/01/15 14:08:21;;;;;;;17.07;9.30;;;;;;;;;;5066265;28;20454;-81
2021/01/15 14:10:47;;;;;;;14.87;9.57;;;;;;;;;;5080486;28;20028;-81
2021/01/15 14:13:13;;;;;;;16.97;9.40;;;;;;;;;;5082213;28;20031;-82
2021/01/15 14:15:39;;;;;;;16.90;9.50;;;;;;;;;;5103125;28;20435;-81
2021/01/15 14:18:05;;;;;;;24.13;9.30;;;;;;;;;;5083120;28;20078;-79
2021/01/15 14:20:31;;;;;;;17.43;9.63;;;;;;;;;;5086663;28;20016;-81
2021/01/15 14:22:58;;;;;;;18.23;8.67;;;;;;;;;;5072581;28;20096;-82
2021/01/15 14:25:24;;;;;;;13.03;8.27;;;;;;;;;;5108372;28;20017;-81
2021/01/15 14:27:50;;;;;;;13.23;7.73;;;;;;;;;;5100523;28;20039;-82
2021/01/15 14:30:16;;;;;;;16.87;8.90;;;;;;;;;;5081683;28;20032;-81
2021/01/15 14:32:49;;;;;;;16.43;7.27;;;;;;;;;;5081115;28;20028;-81
2021/01/15 14:35:15;;;;;;;13.57;7.03;;;;;;;;;;5080425;28;20039;-81